Time;durP1;ratioP1;P1;durP2;ratioP2;P2;SDS_P1;SDS_P2;PMS_P1;PMS_P2;Temp;Humidity;BMP_temperature;BMP_pressure;BME280_temperature;BME280_humidity;BME280_pressure;Samples;Min_cycle;Max_cycle;Signal;HPM_P1;HPM_P2
2024/01/11 00:00:45;;;;;;;9.30;9.00;;;-2.80;99.90;;;;;;6227898;23;20206;-87
2024/01/11 00:03:31;;;;;;;;;;;;;;;;;;;;;
2024/01/11 00:06:10;;;;;;;9.23;8.93;;;-2.90;99.90;;;;;;6229077;22;20195;-87
2024/01/11 00:08:57;;;;;;;9.50;9.20;;;-2.90;99.90;;;;;;6227875;23;20206;-87
2024/01/11 00:11:39;;;;;;;9.50;9.20;;;-3.10;99.90;;;;;;6227407;23;20226;-87
2024/01/11 00:14:09;;;;;;;9.53;9.23;;;-3.20;99.90;;;;;;6227326;23;20196;-87
2024/01/11 00:16:49;;;;;;;9.33;9.03;;;-3.30;99.90;;;;;;6227243;22;20203;-87
2024/01/11 00:19:52;;;;;;;;;;;;;;;;;;;;;
2024/01/11 00:22:29;;;;;;;9.50;9.20;;;-3.20;99.90;;;;;;6249000;22;20269;-87
2024/01/11 00:25:15;;;;;;;9.33;9.03;;;-3.30;99.90;;;;;;6237603;22;20331;-87
2024/01/11 00:27:53;;;;;;;9.17;8.87;;;-3.30;99.90;;;;;;6228903;23;20225;-87
2024/01/11 00:30:42;;;;;;;9.27;8.97;;;-3.50;99.90;;;;;;6227734;23;20197;-87
2024/01/11 00:33:19;;;;;;;9.70;9.40;;;-3.60;99.90;;;;;;6227884;23;20206;-87
2024/01/11 00:36:03;;;;;;;10.13;9.83;;;-3.60;99.90;;;;;;6227937;22;20203;-87
2024/01/11 00:38:47;;;;;;;9.77;9.47;;;-3.70;99.90;;;;;;6227602;23;20194;-87
2024/01/11 00:41:24;;;;;;;10.10;9.80;;;-3.60;99.90;;;;;;6227615;23;20233;-87
2024/01/11 00:44:07;;;;;;;10.10;9.80;;;-3.60;99.90;;;;;;6227093;23;20210;-87
2024/01/11 00:46:57;;;;;;;;;;;;;;;;;;;;;
2024/01/11 00:52:38;;;;;;;9.87;9.57;;;-3.60;99.90;;;;;;6214343;23;20203;-87
2024/01/11 00:55:21;;;;;;;9.70;9.40;;;-3.80;99.90;;;;;;6228096;22;20549;-87
2024/01/11 00:58:00;;;;;;;9.87;9.57;;;-3.90;99.90;;;;;;6226842;23;20198;-87
2024/01/11 01:00:34;;;;;;;9.80;9.50;;;-4.00;99.90;;;;;;6226735;23;20199;-87
2024/01/11 01:03:22;;;;;;;9.93;9.63;;;-4.00;99.90;;;;;;6227438;23;20259;-87
2024/01/11 01:06:19;;;;;;;10.23;9.93;;;-4.00;99.90;;;;;;6226927;22;20203;-87
2024/01/11 01:09:28;;;;;;;9.87;9.57;;;-4.00;99.90;;;;;;6225929;23;20195;-85
2024/01/11 01:12:13;;;;;;;9.47;9.17;;;-3.80;99.90;;;;;;6226855;23;20203;-87
2024/01/11 01:15:01;;;;;;;;;;;;;;;;;;;;;
2024/01/11 01:17:59;;;;;;;9.47;9.17;;;-3.80;99.90;;;;;;6227672;23;20253;-87
2024/01/11 01:20:42;;;;;;;9.10;8.83;;;-3.80;99.90;;;;;;6227701;23;20207;-87
2024/01/11 01:23:20;;;;;;;9.40;9.10;;;-3.90;99.90;;;;;;6227301;23;20206;-87
2024/01/11 01:26:11;;;;;;;;;;;;;;;;;;;;;
2024/01/11 01:28:56;;;;;;;;;;;;;;;;;;;;;
2024/01/11 01:31:29;;;;;;;9.27;8.97;;;-3.80;99.90;;;;;;6227276;23;20190;-87
2024/01/11 01:34:16;;;;;;;;;;;;;;;;;;;;;
2024/01/11 01:37:19;;;;;;;;;;;;;;;;;;;;;
2024/01/11 01:40:05;;;;;;;9.27;8.97;;;-3.80;99.90;;;;;;6240438;22;20175;-88
2024/01/11 01:43:07;;;;;;;9.60;9.30;;;-4.00;99.90;;;;;;6246133;22;20247;-87
2024/01/11 01:45:56;;;;;;;9.63;9.33;;;-4.00;99.90;;;;;;6226112;22;20270;-87
2024/01/11 01:48:33;;;;;;;9.60;9.30;;;-4.00;99.90;;;;;;6226493;23;20218;-87
2024/01/11 01:51:10;;;;;;;9.40;9.10;;;-4.00;99.90;;;;;;6226501;23;20241;-87
2024/01/11 01:54:06;;;;;;;9.00;8.73;;;-3.90;99.90;;;;;;6226593;23;20195;-87
2024/01/11 01:56:49;;;;;;;9.30;9.00;;;-4.00;99.90;;;;;;6159567;23;20230;-87
2024/01/11 01:59:31;;;;;;;9.40;9.10;;;-4.00;99.90;;;;;;6226612;23;20201;-87
2024/01/11 02:02:12;;;;;;;9.70;9.40;;;-4.00;99.90;;;;;;6226693;23;20198;-87
2024/01/11 02:08:15;;;;;;;;;;;;;;;;;;;;;
2024/01/11 02:11:12;;;;;;;;;;;;;;;;;;;;;
2024/01/11 02:13:55;;;;;;;9.20;8.90;;;-3.90;99.90;;;;;;6226377;23;20198;-87
2024/01/11 02:16:27;;;;;;;9.30;9.00;;;-3.90;99.90;;;;;;6226170;22;20224;-87
2024/01/11 02:19:14;;;;;;;9.30;9.00;;;-4.00;99.90;;;;;;6226223;23;20199;-87
2024/01/11 02:22:04;;;;;;;8.97;8.73;;;-3.90;99.90;;;;;;6226628;23;20186;-87
2024/01/11 02:24:46;;;;;;;8.53;8.33;;;-3.90;99.90;;;;;;6226584;22;20717;-87
2024/01/11 02:27:45;;;;;;;8.73;8.53;;;-3.90;99.90;;;;;;6225892;23;20202;-87
2024/01/11 02:30:28;;;;;;;8.67;8.47;;;-4.00;99.90;;;;;;6229442;23;20247;-87
2024/01/11 02:33:21;;;;;;;9.40;9.10;;;-4.00;99.90;;;;;;6230696;23;20191;-87
2024/01/11 02:36:06;;;;;;;9.20;8.90;;;-4.10;99.90;;;;;;6131124;23;20206;-87
2024/01/11 02:39:07;;;;;;;9.17;8.87;;;-4.20;99.90;;;;;;6226953;23;20233;-87
2024/01/11 02:41:49;;;;;;;9.20;8.90;;;-4.40;99.90;;;;;;6226134;23;20202;-87
2024/01/11 02:44:38;;;;;;;9.10;8.80;;;-4.50;99.90;;;;;;6226257;22;20210;-88
2024/01/11 02:47:24;;;;;;;9.23;8.93;;;-4.70;99.90;;;;;;6044993;23;20253;-87
2024/01/11 02:50:12;;;;;;;9.10;8.80;;;-4.80;99.90;;;;;;6044382;23;20228;-87
2024/01/11 02:56:16;;;;;;;9.23;8.93;;;-5.00;99.90;;;;;;6049488;23;20216;-87
2024/01/11 02:59:08;;;;;;;9.37;9.07;;;-5.10;99.90;;;;;;6036963;23;20201;-87
2024/01/11 03:01:43;;;;;;;9.43;9.13;;;-5.20;99.90;;;;;;6058853;23;20218;-88
2024/01/11 03:04:20;;;;;;;9.70;9.40;;;-5.30;99.90;;;;;;6051044;23;20216;-87
2024/01/11 03:06:52;;;;;;;9.40;9.10;;;-5.30;99.90;;;;;;6046267;23;20201;-87
2024/01/11 03:09:33;;;;;;;9.90;9.60;;;-5.30;99.90;;;;;;6045682;23;20292;-87
2024/01/11 03:12:10;;;;;;;9.27;8.97;;;-5.30;99.90;;;;;;6046293;23;20197;-87
2024/01/11 03:14:42;;;;;;;9.60;9.30;;;-5.40;99.90;;;;;;6044790;23;20213;-87
2024/01/11 03:17:24;;;;;;;9.63;9.33;;;-5.40;99.90;;;;;;6045155;23;20201;-87
2024/01/11 03:19:57;;;;;;;9.10;8.80;;;-5.50;99.90;;;;;;6045448;23;20205;-87
2024/01/11 03:22:51;;;;;;;9.20;8.90;;;-5.50;99.90;;;;;;6044998;23;20701;-87
2024/01/11 03:25:28;;;;;;;9.40;9.10;;;-5.60;99.90;;;;;;6046200;23;20253;-87
2024/01/11 03:28:11;;;;;;;9.43;9.13;;;-5.70;99.90;;;;;;6044111;23;20236;-87
2024/01/11 03:30:42;;;;;;;9.47;9.17;;;-5.70;99.90;;;;;;6044260;23;20212;-87
2024/01/11 03:33:18;;;;;;;9.30;9.00;;;-5.70;99.90;;;;;;6043346;23;20202;-87
2024/01/11 03:35:52;;;;;;;9.77;9.47;;;-5.70;99.90;;;;;;6055280;23;20186;-87
2024/01/11 03:38:29;;;;;;;10.07;9.77;;;-5.70;99.90;;;;;;6066997;23;20181;-87
2024/01/11 03:41:02;;;;;;;10.13;9.83;;;-5.80;99.90;;;;;;6065748;23;20254;-86
2024/01/11 03:43:35;;;;;;;10.10;9.80;;;-5.80;99.90;;;;;;6049535;23;20224;-87
2024/01/11 03:46:20;;;;;;;9.67;9.37;;;-5.90;99.90;;;;;;6173015;22;20280;-87
2024/01/11 03:48:55;;;;;;;9.87;9.57;;;-5.90;99.90;;;;;;6227317;23;20206;-87
2024/01/11 03:51:29;;;;;;;9.83;9.53;;;-5.90;99.90;;;;;;6225736;23;20251;-87
2024/01/11 03:54:11;;;;;;;9.50;9.20;;;-5.90;99.90;;;;;;6225923;23;20207;-87
2024/01/11 03:57:03;;;;;;;;;;;;;;;;;;;;;
2024/01/11 03:59:44;;;;;;;9.80;9.50;;;-6.00;99.90;;;;;;6225453;23;20207;-86
2024/01/11 04:02:29;;;;;;;9.80;9.50;;;-6.00;99.90;;;;;;6225267;23;20198;-87
2024/01/11 04:05:15;;;;;;;10.03;9.73;;;-6.10;99.90;;;;;;6225797;22;20212;-86
2024/01/11 04:07:45;;;;;;;9.50;9.20;;;-6.10;99.90;;;;;;6226688;23;20194;-87
2024/01/11 04:10:18;;;;;;;9.57;9.27;;;-6.10;99.90;;;;;;6227018;23;20257;-87
2024/01/11 04:12:52;;;;;;;9.53;9.23;;;-6.10;99.90;;;;;;6228159;23;20193;-86
2024/01/11 04:15:27;;;;;;;10.00;9.70;;;-6.20;99.90;;;;;;6228626;22;20691;-87
2024/01/11 04:18:10;;;;;;;;;;;;;;;;;;;;;
2024/01/11 04:20:48;;;;;;;9.47;9.17;;;-6.20;99.90;;;;;;6227589;23;20204;-87
2024/01/11 04:23:20;;;;;;;9.70;9.40;;;-6.20;99.90;;;;;;6228059;23;20192;-87
2024/01/11 04:25:50;;;;;;;9.07;8.77;;;-6.30;99.90;;;;;;6236569;22;20201;-87
2024/01/11 04:28:30;;;;;;;9.30;9.00;;;-6.20;99.90;;;;;;6249742;22;20165;-88
2024/01/11 04:31:05;;;;;;;9.67;9.37;;;-6.30;99.90;;;;;;6250659;22;20200;-87
2024/01/11 04:33:42;;;;;;;9.17;8.87;;;-6.40;99.90;;;;;;6250649;22;20190;-87
2024/01/11 04:36:11;;;;;;;9.23;8.93;;;-6.40;99.90;;;;;;6250399;22;20188;-88
2024/01/11 04:38:44;;;;;;;9.17;8.87;;;-6.40;99.90;;;;;;6250593;22;20178;-87
2024/01/11 04:41:21;;;;;;;9.17;8.87;;;-6.30;99.90;;;;;;6250659;22;20209;-88
2024/01/11 04:43:49;;;;;;;9.70;9.40;;;-6.30;99.90;;;;;;6250662;22;20188;-88
2024/01/11 04:46:19;;;;;;;9.87;9.57;;;-6.50;99.90;;;;;;6244976;22;20286;-87
2024/01/11 04:48:52;;;;;;;9.77;9.47;;;-6.50;99.90;;;;;;6226934;23;20188;-87
2024/01/11 04:51:23;;;;;;;9.43;9.13;;;-6.50;99.90;;;;;;6227245;23;20248;-87
2024/01/11 04:53:55;;;;;;;9.63;9.33;;;-6.50;99.90;;;;;;6227210;23;20284;-87
2024/01/11 04:56:29;;;;;;;10.00;9.70;;;-6.40;99.90;;;;;;6227141;22;20296;-87
2024/01/11 04:58:59;;;;;;;10.10;9.80;;;-6.40;99.90;;;;;;6226381;23;20200;-87
2024/01/11 05:01:37;;;;;;;9.73;9.43;;;-6.30;99.90;;;;;;6227043;23;20204;-87
2024/01/11 05:04:08;;;;;;;9.80;9.50;;;-6.30;99.90;;;;;;6227244;23;20288;-86
2024/01/11 05:06:45;;;;;;;10.20;9.90;;;-6.30;99.90;;;;;;6227753;22;20200;-87
2024/01/11 05:09:15;;;;;;;9.50;9.20;;;-6.30;99.90;;;;;;6226561;23;20254;-87
2024/01/11 05:12:02;;;;;;;9.50;9.20;;;-6.20;99.90;;;;;;6227327;23;20228;-87
2024/01/11 05:14:37;;;;;;;9.70;9.40;;;-6.20;99.90;;;;;;6226853;22;20252;-86
2024/01/11 05:17:13;;;;;;;9.40;9.10;;;-6.20;99.90;;;;;;6231429;23;20254;-87
2024/01/11 05:19:42;;;;;;;9.93;9.63;;;-6.20;99.90;;;;;;6229355;23;20276;-86
2024/01/11 05:22:18;;;;;;;9.67;9.37;;;-6.20;99.90;;;;;;6226624;23;20250;-86
2024/01/11 05:24:55;;;;;;;9.63;9.33;;;-6.20;99.90;;;;;;6226682;22;20205;-87
2024/01/11 05:27:24;;;;;;;9.80;9.50;;;-6.20;99.90;;;;;;6226913;23;20216;-86
2024/01/11 05:30:14;;;;;;;10.33;10.03;;;-6.20;99.90;;;;;;6226390;23;20194;-86
2024/01/11 05:32:45;;;;;;;9.80;9.50;;;-6.20;99.90;;;;;;6227239;23;20197;-87
2024/01/11 05:35:21;;;;;;;9.50;9.20;;;-6.20;99.90;;;;;;6227973;22;20277;-87
2024/01/11 05:37:56;;;;;;;9.83;9.53;;;-6.20;99.90;;;;;;6226913;23;20233;-87
2024/01/11 05:40:30;;;;;;;9.90;9.60;;;-6.20;99.90;;;;;;6227196;23;20198;-87
2024/01/11 05:43:17;;;;;;;10.20;9.90;;;-6.20;99.90;;;;;;6227547;23;20202;-86
2024/01/11 05:45:44;;;;;;;10.20;9.90;;;-6.20;99.90;;;;;;6226326;22;20214;-79
2024/01/11 05:48:12;;;;;;;9.43;9.13;;;-6.30;99.90;;;;;;6230129;23;20188;-79
2024/01/11 05:50:41;;;;;;;9.53;9.23;;;-6.40;99.90;;;;;;6230503;23;20267;-80
2024/01/11 05:53:08;;;;;;;9.60;9.30;;;-6.40;99.90;;;;;;6231263;23;20197;-80
2024/01/11 05:55:35;;;;;;;9.67;9.37;;;-6.50;99.90;;;;;;6231099;22;20214;-79
2024/01/11 05:58:03;;;;;;;9.73;9.43;;;-6.50;99.90;;;;;;6231907;23;21011;-79
2024/01/11 06:00:30;;;;;;;9.57;9.27;;;-6.50;99.90;;;;;;6231385;23;20207;-79
2024/01/11 06:02:58;;;;;;;9.90;9.60;;;-6.50;99.90;;;;;;6231407;23;20222;-80
2024/01/11 06:05:26;;;;;;;10.10;9.80;;;-6.60;99.90;;;;;;6230623;22;20341;-80
2024/01/11 06:07:55;;;;;;;9.37;9.07;;;-6.60;99.90;;;;;;6231336;23;20273;-80
2024/01/11 06:10:22;;;;;;;9.43;9.13;;;-6.60;99.90;;;;;;6230828;23;20616;-81
2024/01/11 06:12:49;;;;;;;9.83;9.53;;;-6.60;99.90;;;;;;6233567;23;20197;-80
2024/01/11 06:15:17;;;;;;;9.90;9.60;;;-6.60;99.90;;;;;;6232036;22;20200;-78
2024/01/11 06:17:44;;;;;;;9.67;9.37;;;-6.60;99.90;;;;;;6230933;23;20198;-79
2024/01/11 06:20:12;;;;;;;9.87;9.57;;;-6.70;99.90;;;;;;6229781;23;20192;-79
2024/01/11 06:22:40;;;;;;;9.60;9.30;;;-6.70;99.90;;;;;;6229741;23;20203;-79
2024/01/11 06:25:09;;;;;;;9.43;9.13;;;-6.70;99.90;;;;;;6229504;22;20213;-79
2024/01/11 06:27:36;;;;;;;9.83;9.53;;;-6.70;99.90;;;;;;6229240;23;20198;-79
2024/01/11 06:30:06;;;;;;;9.80;9.50;;;-6.70;99.90;;;;;;6229290;23;20207;-79
2024/01/11 06:32:34;;;;;;;9.60;9.30;;;-6.70;99.90;;;;;;6230674;23;20194;-79
2024/01/11 06:35:02;;;;;;;9.60;9.30;;;-6.70;99.90;;;;;;6232316;22;20195;-80
2024/01/11 06:37:29;;;;;;;9.47;9.17;;;-6.70;99.90;;;;;;6232102;23;20203;-80
2024/01/11 06:39:56;;;;;;;9.80;9.50;;;-6.70;99.90;;;;;;6232774;23;20205;-80
2024/01/11 06:42:25;;;;;;;9.73;9.43;;;-6.70;99.90;;;;;;6231429;23;20199;-81
2024/01/11 06:44:53;;;;;;;10.17;9.87;;;-6.70;99.90;;;;;;6231455;23;20204;-81
2024/01/11 06:47:20;;;;;;;10.00;9.70;;;-6.70;99.90;;;;;;6230394;22;20205;-81
2024/01/11 06:49:47;;;;;;;10.30;10.00;;;-6.70;99.90;;;;;;6233477;23;20256;-81
2024/01/11 06:52:14;;;;;;;10.40;10.10;;;-6.70;99.90;;;;;;6231796;23;20192;-81
2024/01/11 06:54:42;;;;;;;10.10;9.80;;;-6.60;99.90;;;;;;6230925;23;20199;-81
2024/01/11 06:57:09;;;;;;;10.00;9.70;;;-6.60;99.90;;;;;;6230591;22;20249;-81
2024/01/11 06:59:38;;;;;;;10.23;9.93;;;-6.60;99.90;;;;;;6230002;23;20267;-81
2024/01/11 07:02:05;;;;;;;10.00;9.70;;;-6.60;99.90;;;;;;6229314;23;20268;-81
2024/01/11 07:04:33;;;;;;;10.17;9.87;;;-6.60;99.90;;;;;;6229684;23;20204;-81
2024/01/11 07:07:00;;;;;;;10.17;9.87;;;-6.60;99.90;;;;;;6228855;22;20205;-81
2024/01/11 07:09:27;;;;;;;10.10;9.80;;;-6.60;99.90;;;;;;6229919;23;20202;-81
2024/01/11 07:11:55;;;;;;;10.07;9.77;;;-6.60;99.90;;;;;;6229709;23;20201;-81
2024/01/11 07:14:22;;;;;;;10.70;10.40;;;-6.60;99.90;;;;;;6229772;23;20208;-81
2024/01/11 07:16:51;;;;;;;10.27;9.97;;;-6.60;99.90;;;;;;6229513;22;20676;-80
2024/01/11 07:19:19;;;;;;;10.43;10.13;;;-6.60;99.90;;;;;;6229592;23;20197;-81
2024/01/11 07:21:46;;;;;;;10.27;9.97;;;-6.60;99.90;;;;;;6229871;23;20207;-81
2024/01/11 07:24:13;;;;;;;10.53;10.23;;;-6.60;99.90;;;;;;6231098;23;20197;-82
2024/01/11 07:26:41;;;;;;;10.70;10.40;;;-6.70;99.90;;;;;;6230332;22;20218;-81
2024/01/11 07:29:08;;;;;;;10.63;10.33;;;-6.80;99.90;;;;;;6230737;23;20201;-81
2024/01/11 07:31:36;;;;;;;10.37;10.07;;;-6.80;99.90;;;;;;6230089;23;20205;-80
2024/01/11 07:34:05;;;;;;;10.90;10.60;;;-6.80;99.90;;;;;;6229757;23;20198;-81
2024/01/11 07:36:32;;;;;;;10.63;10.33;;;-6.80;99.90;;;;;;6230371;22;20207;-82
2024/01/11 07:38:59;;;;;;;10.23;9.93;;;-6.70;99.90;;;;;;6229365;23;20956;-81
2024/01/11 07:41:27;;;;;;;10.90;10.60;;;-6.60;99.90;;;;;;6230651;23;20196;-81
2024/01/11 07:43:58;;;;;;;10.40;10.10;;;-6.50;99.90;;;;;;6231751;23;20193;-81
2024/01/11 07:46:25;;;;;;;10.80;10.50;;;-6.50;99.90;;;;;;6230575;22;20215;-81
2024/01/11 07:48:53;;;;;;;10.33;10.03;;;-6.50;99.90;;;;;;6229871;23;20209;-81
2024/01/11 07:51:22;;;;;;;10.27;9.97;;;-6.50;99.90;;;;;;6231462;23;20281;-81
2024/01/11 07:53:49;;;;;;;10.30;10.00;;;-6.50;99.90;;;;;;6231147;23;20196;-81
2024/01/11 07:56:17;;;;;;;10.53;10.23;;;-6.50;99.90;;;;;;6239201;22;20278;-81
2024/01/11 07:58:44;;;;;;;10.67;10.37;;;-6.40;99.90;;;;;;6232716;23;20197;-80
2024/01/11 08:01:12;;;;;;;10.47;10.17;;;-6.30;99.90;;;;;;6232710;23;20196;-81
2024/01/11 08:03:41;;;;;;;10.70;10.40;;;-6.20;99.90;;;;;;6231401;23;20197;-81
2024/01/11 08:06:09;;;;;;;10.30;10.00;;;-6.10;99.90;;;;;;6230217;22;20242;-81
2024/01/11 08:08:38;;;;;;;9.73;9.43;;;-6.20;99.90;;;;;;6230448;23;20256;-81
2024/01/11 08:11:06;;;;;;;10.20;9.90;;;-6.20;99.90;;;;;;6231382;23;20192;-81
2024/01/11 08:13:34;;;;;;;10.20;9.90;;;-6.20;99.90;;;;;;6230789;23;20252;-81
2024/01/11 08:16:03;;;;;;;9.67;9.37;;;-6.10;99.90;;;;;;6229517;22;20197;-81
2024/01/11 08:18:31;;;;;;;10.10;9.80;;;-6.00;99.90;;;;;;6229858;23;20205;-81
2024/01/11 08:20:58;;;;;;;10.23;9.93;;;-5.90;99.90;;;;;;6234557;23;20198;-81
2024/01/11 08:23:25;;;;;;;10.13;9.83;;;-5.80;99.90;;;;;;6238189;23;20201;-81
2024/01/11 08:25:55;;;;;;;10.30;10.00;;;-5.80;99.90;;;;;;6235871;22;20244;-81
2024/01/11 08:28:22;;;;;;;9.97;9.67;;;-5.70;99.90;;;;;;6231612;23;20209;-79
2024/01/11 08:30:50;;;;;;;10.00;9.70;;;-5.70;99.90;;;;;;6233235;23;20226;-81
2024/01/11 08:33:17;;;;;;;9.53;9.23;;;-5.60;99.90;;;;;;6235680;23;20194;-81
2024/01/11 08:35:44;;;;;;;10.33;10.03;;;-5.50;99.90;;;;;;6235739;22;20206;-80
2024/01/11 08:38:12;;;;;;;10.67;10.37;;;-5.40;99.90;;;;;;6235224;23;20199;-81
2024/01/11 08:40:39;;;;;;;9.87;9.57;;;-5.30;99.90;;;;;;6235805;23;20198;-81
2024/01/11 08:43:12;;;;;;;9.83;9.53;;;-5.20;99.90;;;;;;6233785;23;20219;-81
2024/01/11 08:45:39;;;;;;;10.10;9.80;;;-5.10;99.90;;;;;;6233195;22;20230;-81
2024/01/11 08:48:07;;;;;;;9.57;9.27;;;-4.90;99.90;;;;;;6231101;23;20210;-78
2024/01/11 08:50:34;;;;;;;10.00;9.70;;;-4.70;99.90;;;;;;6229630;23;20611;-80
2024/01/11 08:53:02;;;;;;;9.73;9.43;;;-4.60;99.90;;;;;;6230738;23;20207;-80
2024/01/11 08:55:29;;;;;;;9.90;9.60;;;-4.50;99.90;;;;;;6230450;22;20203;-80
2024/01/11 08:57:56;;;;;;;10.03;9.73;;;-4.40;99.90;;;;;;6230692;23;20199;-80
2024/01/11 09:00:25;;;;;;;9.83;9.53;;;-4.30;99.90;;;;;;6230065;23;20222;-80
2024/01/11 09:02:52;;;;;;;9.70;9.40;;;-4.20;99.90;;;;;;6232692;23;20206;-79
2024/01/11 09:05:21;;;;;;;9.97;9.67;;;-4.00;99.90;;;;;;6229856;22;20234;-79
2024/01/11 09:07:48;;;;;;;10.10;9.80;;;-3.90;99.90;;;;;;6230051;23;20202;-79
2024/01/11 09:10:16;;;;;;;10.10;9.80;;;-3.80;99.90;;;;;;6230627;23;20195;-80
2024/01/11 09:12:43;;;;;;;9.97;9.67;;;-3.70;99.90;;;;;;6230671;23;20205;-80
2024/01/11 09:15:11;;;;;;;10.37;10.07;;;-3.60;99.90;;;;;;6229791;22;20206;-80
2024/01/11 09:17:40;;;;;;;9.83;9.53;;;-3.60;99.90;;;;;;6230340;23;20187;-80
2024/01/11 09:20:09;;;;;;;9.87;9.57;;;-3.40;99.90;;;;;;6242313;23;20273;-80
2024/01/11 09:22:36;;;;;;;9.70;9.40;;;-3.30;99.90;;;;;;6243992;23;20192;-80
2024/01/11 09:25:04;;;;;;;10.13;9.83;;;-3.00;99.90;;;;;;6245211;22;20242;-79
2024/01/11 09:27:31;;;;;;;10.10;9.80;;;-2.80;99.90;;;;;;6240027;23;20202;-80
2024/01/11 09:29:58;;;;;;;10.30;10.00;;;-2.40;99.90;;;;;;6232433;23;20198;-80
2024/01/11 09:32:26;;;;;;;9.90;9.60;;;-2.20;99.90;;;;;;6231828;23;20206;-80
2024/01/11 09:34:55;;;;;;;10.50;10.20;;;-2.10;99.90;;;;;;6231667;23;20197;-80
2024/01/11 09:37:22;;;;;;;9.93;9.63;;;-2.00;99.90;;;;;;6231547;23;20205;-81
2024/01/11 09:39:49;;;;;;;10.17;9.87;;;-2.10;99.90;;;;;;6230629;23;20192;-80
2024/01/11 09:42:16;;;;;;;10.47;10.17;;;-2.00;99.90;;;;;;6230741;23;20196;-81
2024/01/11 09:44:44;;;;;;;10.30;10.00;;;-1.90;99.90;;;;;;6229621;23;20209;-81
2024/01/11 09:47:12;;;;;;;9.87;9.57;;;-1.80;99.90;;;;;;6230299;22;20196;-81
2024/01/11 09:49:42;;;;;;;10.47;10.17;;;-1.60;99.90;;;;;;6229435;23;20202;-81
2024/01/11 09:52:14;;;;;;;10.27;9.97;;;-1.40;99.90;;;;;;6230998;23;20206;-81
2024/01/11 09:54:41;;;;;;;10.30;10.00;;;-1.10;99.90;;;;;;6232364;23;20191;-80
2024/01/11 09:57:11;;;;;;;10.50;10.20;;;-0.70;99.90;;;;;;6232161;22;20202;-80
2024/01/11 09:59:38;;;;;;;10.37;10.07;;;-0.60;99.90;;;;;;6230964;23;20195;-81
2024/01/11 10:02:09;;;;;;;10.30;10.00;;;-0.40;99.90;;;;;;6230617;23;20194;-81
2024/01/11 10:04:37;;;;;;;10.33;10.03;;;-0.10;99.90;;;;;;6240418;22;20195;-80
2024/01/11 10:07:07;;;;;;;10.57;10.27;;;0.20;99.90;;;;;;6239978;22;20187;-81
2024/01/11 10:09:36;;;;;;;10.90;10.60;;;0.30;99.90;;;;;;6232170;23;20221;-81
2024/01/11 10:12:04;;;;;;;10.73;10.43;;;0.50;99.90;;;;;;6234111;23;20195;-81
2024/01/11 10:14:32;;;;;;;10.97;10.67;;;0.70;99.90;;;;;;6245693;22;20203;-79
2024/01/11 10:17:00;;;;;;;10.63;10.33;;;0.60;99.90;;;;;;6249531;22;20175;-79
2024/01/11 10:19:27;;;;;;;10.83;10.53;;;0.60;99.90;;;;;;6250043;22;20179;-79
2024/01/11 10:21:55;;;;;;;10.70;10.40;;;0.70;99.90;;;;;;6250415;22;20218;-79
2024/01/11 10:24:26;;;;;;;11.07;10.77;;;0.70;99.90;;;;;;6249073;22;20179;-80
2024/01/11 10:26:58;;;;;;;10.90;10.60;;;0.80;99.90;;;;;;6248482;23;20251;-79
2024/01/11 10:29:31;;;;;;;10.80;10.50;;;1.00;99.90;;;;;;6249734;22;20202;-80
2024/01/11 10:31:58;;;;;;;10.47;10.17;;;1.10;99.90;;;;;;6250371;22;20239;-80
2024/01/11 10:34:26;;;;;;;10.70;10.40;;;1.20;99.90;;;;;;6249857;22;20215;-80
2024/01/11 10:36:53;;;;;;;10.80;10.50;;;1.30;99.90;;;;;;6249884;22;20185;-79
2024/01/11 10:39:27;;;;;;;10.63;10.33;;;1.40;99.90;;;;;;6249942;22;20231;-79
2024/01/11 10:42:05;;;;;;;10.80;10.50;;;1.50;99.90;;;;;;6250258;22;20182;-79
2024/01/11 10:44:36;;;;;;;11.30;10.90;;;1.60;99.90;;;;;;6250063;22;20174;-79
2024/01/11 10:47:07;;;;;;;11.10;10.80;;;1.50;99.90;;;;;;6249709;22;20184;-80
2024/01/11 10:49:35;;;;;;;10.90;10.60;;;1.40;99.90;;;;;;6249936;22;20171;-80
2024/01/11 10:52:06;;;;;;;11.00;10.70;;;1.60;99.90;;;;;;6249995;22;20230;-80
2024/01/11 10:54:35;;;;;;;11.30;10.90;;;1.90;99.90;;;;;;6246235;22;20191;-80
2024/01/11 10:57:05;;;;;;;10.90;10.60;;;2.00;99.90;;;;;;6246154;22;20191;-81
2024/01/11 10:59:33;;;;;;;10.77;10.47;;;2.20;99.90;;;;;;6243865;23;20195;-81
2024/01/11 11:02:10;;;;;;;10.53;10.23;;;2.20;99.90;;;;;;6233304;23;20226;-81
2024/01/11 11:04:39;;;;;;;10.70;10.40;;;1.90;99.90;;;;;;6230572;23;20198;-81
2024/01/11 11:07:08;;;;;;;10.80;10.50;;;2.20;99.90;;;;;;6230141;22;20210;-81
2024/01/11 11:09:36;;;;;;;10.63;10.33;;;2.50;99.90;;;;;;6230500;23;20198;-81
2024/01/11 11:12:07;;;;;;;10.70;10.40;;;2.60;99.90;;;;;;6231117;23;20205;-81
2024/01/11 11:14:36;;;;;;;11.17;10.80;;;2.90;99.90;;;;;;6231467;23;20195;-80
2024/01/11 11:17:04;;;;;;;10.97;10.67;;;3.10;99.90;;;;;;6234910;22;20195;-81
2024/01/11 11:19:31;;;;;;;11.23;10.87;;;3.10;99.90;;;;;;6234534;23;20194;-81
2024/01/11 11:21:59;;;;;;;10.83;10.53;;;3.20;99.90;;;;;;6233233;23;20222;-81
2024/01/11 11:24:27;;;;;;;11.10;10.80;;;3.40;99.90;;;;;;6231812;23;20223;-82
2024/01/11 11:26:57;;;;;;;11.57;11.17;;;3.70;99.90;;;;;;6230765;22;20205;-81
2024/01/11 11:29:26;;;;;;;11.17;10.77;;;3.90;99.90;;;;;;6231245;23;20202;-81
2024/01/11 11:31:54;;;;;;;11.47;11.07;;;4.20;99.90;;;;;;6231068;23;20203;-81
2024/01/11 11:34:21;;;;;;;11.40;11.00;;;4.40;99.90;;;;;;6231247;23;20198;-81
2024/01/11 11:36:54;;;;;;;11.40;11.00;;;4.60;99.90;;;;;;6231596;22;20211;-81
2024/01/11 11:39:22;;;;;;;11.70;11.30;;;4.80;99.90;;;;;;6231247;23;20191;-80
2024/01/11 11:41:50;;;;;;;11.47;11.07;;;4.60;99.90;;;;;;6231785;23;20201;-81
2024/01/11 11:44:18;;;;;;;11.37;10.97;;;4.70;99.90;;;;;;6231458;23;20199;-81
2024/01/11 11:46:57;;;;;;;11.83;11.43;;;4.60;99.90;;;;;;6226432;22;20211;-87
2024/01/11 11:50:17;;;;;;;;;;;;;;;;;;;;;
2024/01/11 11:53:10;;;;;;;11.23;10.83;;;4.40;99.90;;;;;;6236386;23;20205;-86
2024/01/11 11:55:59;;;;;;;;;;;;;;;;;;;;;
2024/01/11 11:58:30;;;;;;;11.47;11.07;;;4.80;99.90;;;;;;6228655;23;20202;-87
2024/01/11 12:01:12;;;;;;;11.70;11.30;;;5.20;99.90;;;;;;6250162;22;20210;-87
2024/01/11 12:03:55;;;;;;;12.00;11.60;;;5.40;99.90;;;;;;6250622;22;20199;-86
2024/01/11 12:06:43;;;;;;;11.87;11.47;;;5.60;99.90;;;;;;6235863;22;20203;-88
2024/01/11 12:09:15;;;;;;;11.60;11.20;;;5.50;99.90;;;;;;6232467;23;20209;-86
2024/01/11 12:11:58;;;;;;;11.67;11.27;;;5.70;99.90;;;;;;6231995;23;20195;-87
2024/01/11 12:14:32;;;;;;;11.57;11.17;;;6.20;99.90;;;;;;6231379;23;20262;-87
2024/01/11 12:17:14;;;;;;;11.50;11.10;;;6.30;99.90;;;;;;6229983;23;20279;-87
2024/01/11 12:19:55;;;;;;;11.47;11.07;;;6.20;99.90;;;;;;6229676;23;21077;-87
2024/01/11 12:22:29;;;;;;;11.60;11.20;;;6.30;99.90;;;;;;6229828;23;20215;-87
2024/01/11 12:24:58;;;;;;;11.50;11.10;;;6.60;99.90;;;;;;6231202;23;20250;-87
2024/01/11 12:27:26;;;;;;;11.70;11.30;;;6.60;99.90;;;;;;6229319;22;20225;-87
2024/01/11 12:29:57;;;;;;;11.43;11.03;;;6.60;99.90;;;;;;6228870;23;20605;-87
2024/01/11 12:32:25;;;;;;;11.57;11.17;;;6.70;99.90;;;;;;6229867;23;20218;-87
2024/01/11 12:34:55;;;;;;;11.70;11.30;;;6.50;99.90;;;;;;6230131;23;20195;-87
2024/01/11 12:37:41;;;;;;;11.53;11.13;;;6.40;99.90;;;;;;6231113;22;20203;-87
2024/01/11 12:40:23;;;;;;;11.70;11.30;;;6.40;99.90;;;;;;6231041;23;20183;-87
2024/01/11 12:42:51;;;;;;;11.90;11.50;;;6.80;99.90;;;;;;6231675;23;20195;-87
2024/01/11 12:45:22;;;;;;;11.53;11.13;;;6.40;99.90;;;;;;6229911;23;20198;-87
2024/01/11 12:47:54;;;;;;;11.20;10.80;;;6.50;99.90;;;;;;6228636;22;20203;-87
2024/01/11 12:50:26;;;;;;;11.40;11.00;;;6.50;99.90;;;;;;6229744;23;20195;-87
2024/01/11 12:53:12;;;;;;;11.23;10.83;;;6.10;99.90;;;;;;6230797;23;20297;-87
2024/01/11 12:55:51;;;;;;;11.40;11.00;;;6.40;99.90;;;;;;6231085;22;20197;-86
2024/01/11 12:58:28;;;;;;;11.47;11.07;;;6.50;99.90;;;;;;6233466;23;20202;-86
2024/01/11 13:01:02;;;;;;;11.67;11.27;;;6.70;99.90;;;;;;6233220;23;20217;-86
2024/01/11 13:03:32;;;;;;;11.37;10.97;;;6.30;99.90;;;;;;6235395;23;20190;-87
2024/01/11 13:06:08;;;;;;;11.37;10.97;;;6.00;99.90;;;;;;6232242;22;20207;-87
2024/01/11 13:08:52;;;;;;;11.57;11.17;;;6.10;99.90;;;;;;6232818;23;20221;-87
2024/01/11 13:11:23;;;;;;;11.00;10.70;;;6.30;99.90;;;;;;6232046;23;20195;-86
2024/01/11 13:14:04;;;;;;;11.30;10.90;;;5.60;99.90;;;;;;6232316;23;20191;-86
2024/01/11 13:16:51;;;;;;;10.90;10.60;;;5.70;99.90;;;;;;6231082;22;20226;-86
2024/01/11 13:19:27;;;;;;;11.10;10.80;;;5.60;99.90;;;;;;6230780;23;20191;-87
2024/01/11 13:22:03;;;;;;;10.60;10.30;;;5.80;99.90;;;;;;6230829;23;20286;-87
2024/01/11 13:24:40;;;;;;;10.93;10.63;;;5.70;99.90;;;;;;6235851;22;20179;-87
2024/01/11 13:27:19;;;;;;;10.93;10.63;;;5.80;99.90;;;;;;6250407;22;20198;-87
2024/01/11 13:29:52;;;;;;;10.57;10.27;;;5.90;99.90;;;;;;6232780;23;20195;-87
2024/01/11 13:32:22;;;;;;;10.80;10.50;;;6.00;99.90;;;;;;6231955;23;20281;-86
2024/01/11 13:34:55;;;;;;;10.40;10.10;;;6.00;99.90;;;;;;6233814;23;20195;-87
2024/01/11 13:37:31;;;;;;;10.80;10.50;;;6.30;99.90;;;;;;6247957;22;20203;-87
2024/01/11 13:40:01;;;;;;;10.50;10.20;;;6.50;99.90;;;;;;6247536;23;20241;-87
2024/01/11 13:42:31;;;;;;;10.70;10.40;;;6.70;99.90;;;;;;6229859;23;20222;-86